PWSweather.com
Personal Weather Stations
Station Observations
GEELONGWX1
Bell Post Hill, GeelongAU

Bell Post HillGeelongAU

Lat: -38.101, Lon: 144.326

Elevation: 204

Station Type: Davis Vantage Pro2

http://www.geelongweather.com

High Low Average
Temperature 57.6°F14.2°F 42.8°F6.0°F 49.0°F9.4°F
Dew Point 48.3°F9.1°F 39.5°F4.2°F 42.8°F6.0°F
Winds 6.9 mph S11.1 mph S Calm Calm 0.4 mph 0.6 mph
Wind Gusts 12.7 mph20.4 mph -- 1.0 mph1.6 mph
Humidity 93% 55% 80%
Pressure 30.17 in1021.70 in 30.05 in1017.60 in -
Precipitation 0.02 in0.50 in - -
Hour Temp Dew Point Humidity Winds Wind Gusts Pressure Precip Precip Rate Daily Precip Total
12:00 AM 50.4°F10.2°C 47.5°F8.6°C 90% Calm Calm -- 30.05 in1017.6 mb - 0.01 in0.3 mm 0.01 in0.3 mm
12:10 AM 50.3°F10.2°C 47.5°F8.6°C 90% Calm Calm -- 30.05 in1017.6 mb - 0.01 in0.3 mm 0.01 in0.3 mm
12:20 AM 50.2°F10.1°C 47.4°F8.6°C 90% Calm Calm -- 30.05 in1017.6 mb - 0.00 in0.0 mm 0.01 in0.3 mm
12:30 AM 49.9°F9.9°C 47.1°F8.4°C 90% Calm Calm -- 30.05 in1017.6 mb - 0.00 in0.0 mm 0.01 in0.3 mm
12:40 AM 49.7°F9.8°C 46.9°F8.3°C 90% Calm Calm -- 30.05 in1017.6 mb - 0.00 in0.0 mm 0.01 in0.3 mm
12:50 AM 49.4°F9.7°C 46.6°F8.1°C 90% Calm Calm -- 30.06 in1017.9 mb - 0.00 in0.0 mm 0.01 in0.3 mm
01:00 AM 49.1°F9.5°C 46.3°F7.9°C 90% Calm Calm -- 30.06 in1017.9 mb - 0.00 in0.0 mm 0.01 in0.3 mm
01:10 AM 48.9°F9.4°C 46.1°F7.8°C 90% Calm Calm -- 30.07 in1018.3 mb - 0.00 in0.0 mm 0.01 in0.3 mm
01:20 AM 48.7°F9.3°C 45.9°F7.7°C 90% Calm Calm -- 30.07 in1018.3 mb - 0.00 in0.0 mm 0.01 in0.3 mm
01:30 AM 48.5°F9.2°C 45.7°F7.6°C 90% Calm Calm -- 30.07 in1018.3 mb - 0.00 in0.0 mm 0.01 in0.3 mm
01:40 AM 48.4°F9.1°C 45.6°F7.6°C 90% Calm Calm -- 30.06 in1017.9 mb - 0.00 in0.0 mm 0.01 in0.3 mm
01:50 AM 48.3°F9.1°C 45.5°F7.5°C 90% Calm Calm -- 30.07 in1018.3 mb - 0.00 in0.0 mm 0.01 in0.3 mm
02:00 AM 48.2°F9.0°C 45.4°F7.4°C 90% Calm Calm -- 30.07 in1018.3 mb - 0.00 in0.0 mm 0.01 in0.3 mm
02:10 AM 48.1°F8.9°C 45.3°F7.4°C 90% Calm Calm -- 30.07 in1018.3 mb - 0.00 in0.0 mm 0.01 in0.3 mm
02:20 AM 47.9°F8.8°C 45.1°F7.3°C 90% Calm Calm -- 30.08 in1018.6 mb - 0.00 in0.0 mm 0.01 in0.3 mm
02:30 AM 47.7°F8.7°C 44.9°F7.2°C 90% Calm Calm -- 30.08 in1018.6 mb - 0.00 in0.0 mm 0.01 in0.3 mm
02:40 AM 47.5°F8.6°C 44.7°F7.1°C 90% Calm Calm -- 30.08 in1018.6 mb - 0.00 in0.0 mm 0.01 in0.3 mm
02:50 AM 47.3°F8.5°C 44.5°F6.9°C 90% Calm Calm -- 30.08 in1018.6 mb - 0.00 in0.0 mm 0.01 in0.3 mm
03:00 AM 47.1°F8.4°C 44.3°F6.8°C 90% Calm Calm -- 30.08 in1018.6 mb - 0.00 in0.0 mm 0.01 in0.3 mm
03:10 AM 46.9°F8.3°C 44.1°F6.7°C 90% Calm Calm -- 30.08 in1018.6 mb - 0.00 in0.0 mm 0.01 in0.3 mm
03:20 AM 46.7°F8.2°C 43.9°F6.6°C 90% Calm Calm -- 30.08 in1018.6 mb - 0.00 in0.0 mm 0.01 in0.3 mm
03:30 AM 46.5°F8.1°C 43.7°F6.5°C 90% Calm Calm -- 30.08 in1018.6 mb - 0.00 in0.0 mm 0.01 in0.3 mm
03:40 AM 46.3°F7.9°C 43.5°F6.4°C 90% Calm Calm -- 30.08 in1018.6 mb - 0.00 in0.0 mm 0.01 in0.3 mm
03:50 AM 46.2°F7.9°C 43.4°F6.3°C 90% Calm Calm -- 30.08 in1018.6 mb - 0.00 in0.0 mm 0.01 in0.3 mm
04:00 AM 46.0°F7.8°C 43.6°F6.4°C 91% Calm Calm -- 30.08 in1018.6 mb - 0.00 in0.0 mm 0.01 in0.3 mm
04:10 AM 46.0°F7.8°C 43.5°F6.4°C 91% Calm Calm -- 30.09 in1019.0 mb - 0.00 in0.0 mm 0.01 in0.3 mm
04:20 AM 45.9°F7.7°C 43.4°F6.3°C 91% Calm Calm -- 30.09 in1019.0 mb - 0.00 in0.0 mm 0.01 in0.3 mm
04:30 AM 45.8°F7.7°C 43.3°F6.3°C 91% Calm Calm -- 30.09 in1019.0 mb - 0.00 in0.0 mm 0.01 in0.3 mm
04:40 AM 45.8°F7.7°C 43.3°F6.3°C 91% Calm Calm -- 30.09 in1019.0 mb - 0.00 in0.0 mm 0.01 in0.3 mm
04:50 AM 45.7°F7.6°C 43.2°F6.2°C 91% Calm Calm -- 30.09 in1019.0 mb - 0.00 in0.0 mm 0.01 in0.3 mm
05:00 AM 45.6°F7.6°C 43.1°F6.2°C 91% Calm Calm -- 30.09 in1019.0 mb - 0.00 in0.0 mm 0.01 in0.3 mm
05:10 AM 45.5°F7.5°C 43.0°F6.1°C 91% Calm Calm -- 30.09 in1019.0 mb - 0.00 in0.0 mm 0.01 in0.3 mm
05:20 AM 45.3°F7.4°C 42.8°F6.0°C 91% Calm Calm -- 30.10 in1019.3 mb - 0.00 in0.0 mm 0.01 in0.3 mm
05:30 AM 45.2°F7.3°C 42.7°F5.9°C 91% Calm Calm -- 30.10 in1019.3 mb - 0.00 in0.0 mm 0.01 in0.3 mm
05:40 AM 45.1°F7.3°C 42.6°F5.9°C 91% Calm Calm -- 30.10 in1019.3 mb - 0.00 in0.0 mm 0.01 in0.3 mm
05:50 AM 44.8°F7.1°C 42.4°F5.8°C 91% Calm Calm -- 30.11 in1019.6 mb - 0.00 in0.0 mm 0.01 in0.3 mm
06:00 AM 44.5°F6.9°C 42.0°F5.6°C 91% Calm Calm -- 30.11 in1019.6 mb - 0.00 in0.0 mm 0.01 in0.3 mm
06:10 AM 44.2°F6.8°C 41.7°F5.4°C 91% Calm Calm -- 30.11 in1019.6 mb - 0.00 in0.0 mm 0.01 in0.3 mm
06:20 AM 43.8°F6.6°C 41.3°F5.2°C 91% Calm Calm -- 30.11 in1019.6 mb - 0.00 in0.0 mm 0.01 in0.3 mm
06:30 AM 43.6°F6.4°C 41.1°F5.1°C 91% Calm Calm -- 30.11 in1019.6 mb - 0.00 in0.0 mm 0.01 in0.3 mm
06:40 AM 43.4°F6.3°C 40.9°F4.9°C 91% Calm Calm -- 30.12 in1020.0 mb - 0.00 in0.0 mm 0.01 in0.3 mm
06:50 AM 43.4°F6.3°C 40.9°F4.9°C 91% Calm Calm -- 30.12 in1020.0 mb - 0.00 in0.0 mm 0.01 in0.3 mm
07:00 AM 43.4°F6.3°C 40.9°F4.9°C 91% Calm Calm -- 30.12 in1020.0 mb - 0.00 in0.0 mm 0.01 in0.3 mm
07:10 AM 43.5°F6.4°C 41.0°F5.0°C 91% Calm Calm -- 30.13 in1020.3 mb - 0.00 in0.0 mm 0.01 in0.3 mm
07:20 AM 43.4°F6.3°C 41.2°F5.1°C 92% Calm Calm -- 30.13 in1020.3 mb - 0.00 in0.0 mm 0.01 in0.3 mm
07:30 AM 43.1°F6.2°C 40.7°F4.8°C 91% Calm Calm -- 30.14 in1020.7 mb - 0.00 in0.0 mm 0.01 in0.3 mm
07:40 AM 43.0°F6.1°C 40.6°F4.8°C 91% Calm Calm -- 30.14 in1020.7 mb - 0.00 in0.0 mm 0.01 in0.3 mm
07:50 AM 42.9°F6.1°C 40.7°F4.8°C 92% Calm Calm -- 30.14 in1020.7 mb - 0.00 in0.0 mm 0.01 in0.3 mm
08:00 AM 42.8°F6.0°C 40.7°F4.8°C 92% Calm Calm -- 30.14 in1020.7 mb - 0.00 in0.0 mm 0.01 in0.3 mm
08:10 AM 42.8°F6.0°C 40.6°F4.8°C 92% Calm Calm -- 30.14 in1020.7 mb - 0.00 in0.0 mm 0.01 in0.3 mm
08:20 AM 42.9°F6.1°C 40.7°F4.8°C 92% Calm Calm -- 30.14 in1020.7 mb - 0.00 in0.0 mm 0.01 in0.3 mm
08:30 AM 43.0°F6.1°C 40.8°F4.9°C 92% Calm Calm -- 30.15 in1021.0 mb - 0.00 in0.0 mm 0.01 in0.3 mm
08:40 AM 43.1°F6.2°C 40.9°F4.9°C 92% Calm Calm -- 30.15 in1021.0 mb - 0.00 in0.0 mm 0.01 in0.3 mm
08:50 AM 43.8°F6.6°C 41.9°F5.5°C 93% Calm Calm -- 30.16 in1021.3 mb - 0.00 in0.0 mm 0.01 in0.3 mm
09:00 AM 44.4°F6.9°C 42.5°F5.8°C 93% Calm Calm -- 30.17 in1021.7 mb - 0.00 in0.0 mm 0.01 in0.3 mm
09:10 AM 45.3°F7.4°C 43.4°F6.3°C 93% Calm Calm -- 30.16 in1021.3 mb - 0.00 in0.0 mm 0.01 in0.3 mm
09:20 AM 46.1°F7.8°C 44.2°F6.8°C 93% Calm Calm -- 30.16 in1021.3 mb - 0.00 in0.0 mm 0.01 in0.3 mm
09:30 AM 47.2°F8.4°C 45.2°F7.3°C 93% Calm Calm -- 30.16 in1021.3 mb - 0.00 in0.0 mm 0.01 in0.3 mm
09:40 AM 48.2°F9.0°C 46.3°F7.9°C 93% Calm Calm -- 30.17 in1021.7 mb - 0.00 in0.0 mm 0.01 in0.3 mm
09:50 AM 49.2°F9.6°C 47.3°F8.5°C 93% Calm Calm -- 30.17 in1021.7 mb - 0.00 in0.0 mm 0.01 in0.3 mm
10:00 AM 49.6°F9.8°C 47.4°F8.6°C 92% Calm Calm -- 30.17 in1021.7 mb - 0.00 in0.0 mm 0.01 in0.3 mm
10:10 AM 50.2°F10.1°C 48.0°F8.9°C 92% Calm Calm -- 30.17 in1021.7 mb - 0.00 in0.0 mm 0.01 in0.3 mm
10:20 AM 50.7°F10.4°C 48.2°F9.0°C 91% Calm Calm -- 30.17 in1021.7 mb - 0.00 in0.0 mm 0.01 in0.3 mm
10:30 AM 51.4°F10.8°C 48.3°F9.1°C 89% Calm Calm -- 30.17 in1021.7 mb - 0.00 in0.0 mm 0.01 in0.3 mm
10:40 AM 51.9°F11.1°C 47.8°F8.8°C 86% 3.5 mph SSW5.6 kmh SSW 3.5 mph5.6 kmh 30.17 in1021.7 mb - 0.00 in0.0 mm 0.01 in0.3 mm
10:50 AM 52.4°F11.3°C 48.0°F8.9°C 85% 4.6 mph SW7.4 kmh SW 8.1 mph13.0 kmh 30.17 in1021.7 mb - 0.00 in0.0 mm 0.01 in0.3 mm
11:00 AM 53.2°F11.8°C 48.2°F9.0°C 83% 2.3 mph W3.7 kmh W 8.1 mph13.0 kmh 30.17 in1021.7 mb - 0.00 in0.0 mm 0.01 in0.3 mm
11:10 AM 53.8°F12.1°C 48.1°F8.9°C 81% Calm Calm -- 30.16 in1021.3 mb - 0.00 in0.0 mm 0.01 in0.3 mm
11:20 AM 54.2°F12.3°C 47.1°F8.4°C 77% 3.5 mph S5.6 kmh S 6.9 mph11.1 kmh 30.16 in1021.3 mb - 0.00 in0.0 mm 0.01 in0.3 mm
11:30 AM 54.6°F12.6°C 47.2°F8.4°C 76% 1.2 mph SW1.9 kmh SW 4.6 mph7.4 kmh 30.15 in1021.0 mb - 0.00 in0.0 mm 0.01 in0.3 mm
11:40 AM 55.2°F12.9°C 47.1°F8.4°C 74% Calm Calm 10.4 mph16.7 kmh 30.15 in1021.0 mb - 0.00 in0.0 mm 0.01 in0.3 mm
11:50 AM 55.6°F13.1°C 46.7°F8.2°C 72% 1.2 mph SSW1.9 kmh SSW 4.6 mph7.4 kmh 30.15 in1021.0 mb - 0.00 in0.0 mm 0.01 in0.3 mm
12:00 PM 56.1°F13.4°C 46.4°F8.0°C 70% 1.2 mph S1.9 kmh S 4.6 mph7.4 kmh 30.14 in1020.7 mb - 0.00 in0.0 mm 0.01 in0.3 mm
12:10 PM 56.3°F13.5°C 45.5°F7.5°C 67% Calm Calm -- 30.14 in1020.7 mb - 0.00 in0.0 mm 0.01 in0.3 mm
12:20 PM 56.0°F13.3°C 44.8°F7.1°C 66% Calm Calm -- 30.14 in1020.7 mb - 0.00 in0.0 mm 0.01 in0.3 mm
12:30 PM 56.1°F13.4°C 44.5°F6.9°C 65% 4.6 mph SSW7.4 kmh SSW 9.2 mph14.8 kmh 30.14 in1020.7 mb - 0.00 in0.0 mm 0.01 in0.3 mm
12:40 PM 56.6°F13.7°C 44.1°F6.7°C 63% 2.3 mph SW3.7 kmh SW 6.9 mph11.1 kmh 30.14 in1020.7 mb - 0.00 in0.0 mm 0.01 in0.3 mm
12:50 PM 56.8°F13.8°C 43.1°F6.2°C 60% Calm Calm 4.6 mph7.4 kmh 30.13 in1020.3 mb - 0.00 in0.0 mm 0.01 in0.3 mm
01:00 PM 56.8°F13.8°C 43.1°F6.2°C 60% 1.2 mph SSW1.9 kmh SSW -- 30.13 in1020.3 mb - 0.00 in0.0 mm 0.01 in0.3 mm
01:10 PM 56.7°F13.7°C 42.1°F5.6°C 58% 2.3 mph SSW3.7 kmh SSW 4.6 mph7.4 kmh 30.13 in1020.3 mb - 0.00 in0.0 mm 0.01 in0.3 mm
01:20 PM 56.9°F13.8°C 41.9°F5.5°C 57% 1.2 mph SSW1.9 kmh SSW 5.8 mph9.3 kmh 30.13 in1020.3 mb - 0.00 in0.0 mm 0.01 in0.3 mm
01:30 PM 57.3°F14.1°C 41.7°F5.4°C 56% Calm Calm 3.5 mph5.6 kmh 30.12 in1020.0 mb - 0.00 in0.0 mm 0.01 in0.3 mm
01:40 PM 57.4°F14.1°C 41.4°F5.2°C 55% 2.3 mph SSW3.7 kmh SSW 6.9 mph11.1 kmh 30.12 in1020.0 mb - 0.00 in0.0 mm 0.01 in0.3 mm
01:50 PM 57.6°F14.2°C 42.0°F5.6°C 56% 6.9 mph S11.1 kmh S 11.5 mph18.5 kmh 30.12 in1020.0 mb - 0.00 in0.0 mm 0.01 in0.3 mm
02:00 PM 56.6°F13.7°C 40.6°F4.8°C 55% 2.3 mph WSW3.7 kmh WSW -- 30.12 in1020.0 mb - 0.00 in0.0 mm 0.01 in0.3 mm
02:10 PM 55.4°F13.0°C 40.4°F4.7°C 57% Calm Calm -- 30.11 in1019.6 mb - 0.00 in0.0 mm 0.01 in0.3 mm
02:20 PM 54.9°F12.7°C 40.4°F4.7°C 58% 2.3 mph SW3.7 kmh SW 6.9 mph11.1 kmh 30.11 in1019.6 mb - 0.00 in0.0 mm 0.01 in0.3 mm
02:30 PM 55.1°F12.8°C 40.1°F4.5°C 57% 2.3 mph SSW3.7 kmh SSW 6.9 mph11.1 kmh 30.11 in1019.6 mb - 0.00 in0.0 mm 0.01 in0.3 mm
02:40 PM 54.8°F12.7°C 40.3°F4.6°C 58% Calm Calm -- 30.11 in1019.6 mb - 0.00 in0.0 mm 0.01 in0.3 mm
02:50 PM 54.4°F12.4°C 40.8°F4.9°C 60% 1.2 mph W1.9 kmh W 3.5 mph5.6 kmh 30.11 in1019.6 mb - 0.00 in0.0 mm 0.01 in0.3 mm
03:00 PM 54.8°F12.7°C 42.0°F5.6°C 62% 2.3 mph W3.7 kmh W 4.6 mph7.4 kmh 30.11 in1019.6 mb - 0.00 in0.0 mm 0.01 in0.3 mm
03:10 PM 54.8°F12.7°C 42.0°F5.6°C 62% Calm Calm 5.8 mph9.3 kmh 30.11 in1019.6 mb - 0.00 in0.0 mm 0.01 in0.3 mm
03:20 PM 54.4°F12.4°C 41.2°F5.1°C 61% 2.3 mph SSW3.7 kmh SSW 12.7 mph20.4 kmh 30.11 in1019.6 mb - 0.00 in0.0 mm 0.01 in0.3 mm
03:30 PM 53.9°F12.2°C 41.2°F5.1°C 62% Calm Calm -- 30.12 in1020.0 mb - 0.00 in0.0 mm 0.01 in0.3 mm
03:40 PM 53.5°F11.9°C 41.6°F5.3°C 64% Calm Calm -- 30.11 in1019.6 mb - 0.00 in0.0 mm 0.01 in0.3 mm
03:50 PM 53.0°F11.7°C 41.6°F5.3°C 65% Calm Calm -- 30.11 in1019.6 mb - 0.00 in0.0 mm 0.01 in0.3 mm
04:00 PM 52.8°F11.6°C 41.7°F5.4°C 66% Calm Calm -- 30.11 in1019.6 mb - 0.00 in0.0 mm 0.01 in0.3 mm
04:10 PM 52.5°F11.4°C 41.9°F5.5°C 67% Calm Calm -- 30.11 in1019.6 mb - 0.00 in0.0 mm 0.01 in0.3 mm
04:20 PM 52.2°F11.2°C 41.9°F5.5°C 68% Calm Calm -- 30.12 in1020.0 mb - 0.00 in0.0 mm 0.01 in0.3 mm
04:30 PM 51.9°F11.1°C 41.7°F5.4°C 68% Calm Calm -- 30.12 in1020.0 mb - 0.00 in0.0 mm 0.01 in0.3 mm
04:40 PM 51.6°F10.9°C 41.8°F5.4°C 69% Calm Calm -- 30.12 in1020.0 mb - 0.00 in0.0 mm 0.01 in0.3 mm
04:50 PM 51.2°F10.7°C 41.7°F5.4°C 70% Calm Calm -- 30.12 in1020.0 mb - 0.00 in0.0 mm 0.01 in0.3 mm
05:00 PM 50.8°F10.4°C 41.4°F5.2°C 70% Calm Calm -- 30.12 in1020.0 mb - 0.00 in0.0 mm 0.01 in0.3 mm
05:10 PM 50.4°F10.2°C 41.0°F5.0°C 70% Calm Calm -- 30.13 in1020.3 mb - 0.00 in0.0 mm 0.01 in0.3 mm
05:20 PM 49.9°F9.9°C 40.9°F4.9°C 71% Calm Calm -- 30.13 in1020.3 mb - 0.00 in0.0 mm 0.01 in0.3 mm
05:30 PM 49.6°F9.8°C 40.9°F4.9°C 72% Calm Calm -- 30.13 in1020.3 mb - 0.00 in0.0 mm 0.01 in0.3 mm
05:40 PM 49.4°F9.7°C 41.1°F5.1°C 73% Calm Calm -- 30.13 in1020.3 mb - 0.00 in0.0 mm 0.01 in0.3 mm
05:50 PM 49.2°F9.6°C 40.9°F4.9°C 73% Calm Calm -- 30.13 in1020.3 mb - 0.00 in0.0 mm 0.01 in0.3 mm
06:00 PM 49.0°F9.4°C 41.1°F5.1°C 74% Calm Calm -- 30.13 in1020.3 mb - 0.00 in0.0 mm 0.01 in0.3 mm
06:10 PM 48.8°F9.3°C 40.9°F4.9°C 74% Calm Calm -- 30.13 in1020.3 mb - 0.00 in0.0 mm 0.01 in0.3 mm
06:20 PM 48.7°F9.3°C 40.8°F4.9°C 74% Calm Calm -- 30.13 in1020.3 mb - 0.00 in0.0 mm 0.01 in0.3 mm
06:30 PM 48.6°F9.2°C 41.0°F5.0°C 75% Calm Calm -- 30.13 in1020.3 mb - 0.00 in0.0 mm 0.01 in0.3 mm
06:40 PM 48.5°F9.2°C 40.9°F4.9°C 75% Calm Calm -- 30.13 in1020.3 mb - 0.00 in0.0 mm 0.01 in0.3 mm
06:50 PM 48.5°F9.2°C 41.2°F5.1°C 76% Calm Calm -- 30.13 in1020.3 mb - 0.00 in0.0 mm 0.01 in0.3 mm
07:00 PM 48.4°F9.1°C 41.2°F5.1°C 76% Calm Calm -- 30.13 in1020.3 mb - 0.00 in0.0 mm 0.01 in0.3 mm
07:10 PM 48.4°F9.1°C 41.5°F5.3°C 77% Calm Calm -- 30.14 in1020.7 mb - 0.00 in0.0 mm 0.01 in0.3 mm
07:20 PM 48.3°F9.1°C 41.4°F5.2°C 77% Calm Calm -- 30.13 in1020.3 mb - 0.00 in0.0 mm 0.01 in0.3 mm
07:30 PM 48.3°F9.1°C 41.7°F5.4°C 78% Calm Calm -- 30.13 in1020.3 mb - 0.00 in0.0 mm 0.01 in0.3 mm
07:40 PM 48.2°F9.0°C 41.7°F5.4°C 78% Calm Calm -- 30.14 in1020.7 mb - 0.00 in0.0 mm 0.01 in0.3 mm
07:50 PM 48.1°F8.9°C 41.6°F5.3°C 78% Calm Calm -- 30.13 in1020.3 mb - 0.00 in0.0 mm 0.01 in0.3 mm
08:00 PM 48.1°F8.9°C 41.6°F5.3°C 78% Calm Calm -- 30.14 in1020.7 mb - 0.00 in0.0 mm 0.01 in0.3 mm
08:10 PM 48.0°F8.9°C 41.5°F5.3°C 78% Calm Calm -- 30.14 in1020.7 mb - 0.00 in0.0 mm 0.01 in0.3 mm
08:20 PM 47.9°F8.8°C 41.4°F5.2°C 78% Calm Calm -- 30.14 in1020.7 mb - 0.00 in0.0 mm 0.01 in0.3 mm
08:30 PM 47.8°F8.8°C 41.6°F5.3°C 79% Calm Calm -- 30.14 in1020.7 mb - 0.00 in0.0 mm 0.01 in0.3 mm
08:40 PM 47.7°F8.7°C 41.2°F5.1°C 78% Calm Calm -- 30.13 in1020.3 mb - 0.00 in0.0 mm 0.01 in0.3 mm
08:50 PM 47.6°F8.7°C 41.1°F5.1°C 78% Calm Calm -- 30.13 in1020.3 mb - 0.00 in0.0 mm 0.01 in0.3 mm
09:00 PM 47.5°F8.6°C 41.0°F5.0°C 78% Calm Calm -- 30.13 in1020.3 mb - 0.00 in0.0 mm 0.01 in0.3 mm
09:10 PM 47.4°F8.6°C 40.9°F4.9°C 78% Calm Calm -- 30.13 in1020.3 mb - 0.00 in0.0 mm 0.01 in0.3 mm
09:20 PM 47.3°F8.5°C 40.8°F4.9°C 78% Calm Calm -- 30.13 in1020.3 mb - 0.00 in0.0 mm 0.01 in0.3 mm
09:30 PM 47.1°F8.4°C 40.9°F4.9°C 79% Calm Calm -- 30.12 in1020.0 mb - 0.00 in0.0 mm 0.01 in0.3 mm
09:40 PM 47.0°F8.3°C 40.8°F4.9°C 79% Calm Calm -- 30.13 in1020.3 mb - 0.00 in0.0 mm 0.01 in0.3 mm
09:50 PM 46.8°F8.2°C 40.6°F4.8°C 79% Calm Calm -- 30.12 in1020.0 mb - 0.00 in0.0 mm 0.01 in0.3 mm
10:00 PM 46.6°F8.1°C 40.4°F4.7°C 79% Calm Calm -- 30.12 in1020.0 mb - 0.00 in0.0 mm 0.01 in0.3 mm
10:10 PM 46.4°F8.0°C 39.9°F4.4°C 78% Calm Calm -- 30.12 in1020.0 mb - 0.00 in0.0 mm 0.01 in0.3 mm
10:20 PM 46.3°F7.9°C 39.8°F4.3°C 78% Calm Calm -- 30.12 in1020.0 mb - 0.00 in0.0 mm 0.01 in0.3 mm
10:30 PM 46.2°F7.9°C 39.7°F4.3°C 78% Calm Calm -- 30.12 in1020.0 mb - 0.00 in0.0 mm 0.01 in0.3 mm
10:40 PM 46.0°F7.8°C 39.5°F4.2°C 78% Calm Calm -- 30.11 in1019.6 mb - 0.00 in0.0 mm 0.01 in0.3 mm
10:50 PM 46.0°F7.8°C 39.5°F4.2°C 78% Calm Calm -- 30.11 in1019.6 mb - 0.00 in0.0 mm 0.01 in0.3 mm
11:00 PM 46.0°F7.8°C 39.5°F4.2°C 78% Calm Calm -- 30.11 in1019.6 mb - 0.00 in0.0 mm 0.01 in0.3 mm
11:10 PM 46.0°F7.8°C 39.9°F4.4°C 79% Calm Calm -- 30.11 in1019.6 mb - 0.00 in0.0 mm 0.01 in0.3 mm
11:20 PM 46.0°F7.8°C 39.9°F4.4°C 79% Calm Calm -- 30.11 in1019.6 mb - 0.00 in0.0 mm 0.01 in0.3 mm
11:30 PM 46.1°F7.8°C 39.9°F4.4°C 79% Calm Calm -- 30.10 in1019.3 mb - 0.00 in0.0 mm 0.01 in0.3 mm
11:40 PM 46.1°F7.8°C 39.9°F4.4°C 79% Calm Calm -- 30.10 in1019.3 mb - 0.00 in0.0 mm 0.01 in0.3 mm
11:50 PM 46.1°F7.8°C 39.9°F4.4°C 79% Calm Calm -- 30.10 in1019.3 mb - 0.00 in0.0 mm 0.01 in0.3 mm